Time;durP1;ratioP1;P1;durP2;ratioP2;P2;SDS_P1;SDS_P2;PMS_P1;PMS_P2;Temp;Humidity;BMP_temperature;BMP_pressure;BME280_temperature;BME280_humidity;BME280_pressure;Samples;Min_cycle;Max_cycle;Signal;HPM_P1;HPM_P2
2022/12/28 00:00:46;;;;;;;6.50;3.60;;;;;;;-142.75;100.00;77909.06;4992530;28;20280;-66
2022/12/28 00:03:12;;;;;;;11.85;3.38;;;;;;;-142.75;100.00;77897.25;4984333;28;20308;-66
2022/12/28 00:05:37;;;;;;;7.97;3.72;;;;;;;-142.75;100.00;77897.25;4967243;28;20363;-63
2022/12/28 00:08:03;;;;;;;8.35;3.92;;;;;;;-142.75;100.00;77887.41;5001236;28;20413;-67
2022/12/28 00:10:29;;;;;;;6.57;3.90;;;;;;;-142.75;100.00;77883.47;5000571;28;20420;-66
2022/12/28 00:12:55;;;;;;;12.97;4.50;;;;;;;-142.75;100.00;77885.44;4990784;28;20637;-66
2022/12/28 00:15:20;;;;;;;9.07;3.58;;;;;;;-142.75;100.00;77863.78;4989683;28;20036;-66
2022/12/28 00:17:46;;;;;;;12.05;4.30;;;;;;;-142.75;100.00;77853.94;4987107;28;20099;-66
2022/12/28 00:20:12;;;;;;;6.75;3.60;;;;;;;-142.75;100.00;77830.31;4993078;28;20506;-66
2022/12/28 00:22:37;;;;;;;13.02;3.67;;;;;;;-142.75;100.00;77832.28;4979380;28;20344;-65
2022/12/28 00:25:03;;;;;;;8.70;3.90;;;;;;;-142.75;100.00;77832.28;4984500;28;20148;-66
2022/12/28 00:27:29;;;;;;;9.43;3.90;;;;;;;-142.75;100.00;77814.56;4991959;28;20155;-66
2022/12/28 00:29:54;;;;;;;8.90;4.15;;;;;;;-142.75;100.00;77787.00;4977611;28;20327;-65
2022/12/28 00:32:20;;;;;;;10.90;4.38;;;;;;;-142.75;100.00;77806.69;5021716;22;20377;-66
2022/12/28 00:34:45;;;;;;;7.47;3.80;;;;;;;-142.75;100.00;77787.00;5000620;28;20327;-66
2022/12/28 00:37:11;;;;;;;12.13;4.82;;;;;;;-142.75;100.00;77781.09;5005287;28;20384;-67
2022/12/28 00:39:37;;;;;;;9.68;4.20;;;;;;;-142.75;100.00;77783.06;4986539;28;20310;-67
2022/12/28 00:42:02;;;;;;;8.38;4.43;;;;;;;-142.75;100.00;77785.03;4981007;28;20330;-67
2022/12/28 00:44:28;;;;;;;6.68;3.80;;;;;;;-142.75;100.00;77763.38;4985788;28;20315;-67
2022/12/28 00:46:54;;;;;;;6.45;3.78;;;;;;;-142.75;100.00;77755.50;5002976;28;20323;-67
2022/12/28 00:49:19;;;;;;;6.78;4.65;;;;;;;-142.75;100.00;77749.59;4984908;28;20038;-66
2022/12/28 00:51:45;;;;;;;9.93;4.25;;;;;;;-142.75;100.00;77745.66;5003212;28;20420;-66
2022/12/28 00:54:10;;;;;;;11.43;4.28;;;;;;;-142.75;100.00;77743.69;5002968;28;20318;-68
2022/12/28 00:56:36;;;;;;;17.20;4.53;;;;;;;-142.75;100.00;77739.75;5003296;28;20465;-67
2022/12/28 00:59:01;;;;;;;7.07;4.38;;;;;;;-142.75;100.00;77741.72;5003979;28;20311;-67
2022/12/28 01:01:28;;;;;;;13.40;4.95;;;;;;;-142.75;100.00;77739.75;5003392;28;20300;-66
2022/12/28 01:03:57;;;;;;;;;;;;;;;-142.75;100.00;77727.94;4984824;28;20143;-67
2022/12/28 01:06:22;;;;;;;11.70;5.37;;;;;;;-142.75;100.00;77720.03;5002905;28;19998;-66
2022/12/28 01:08:48;;;;;;;14.45;4.18;;;;;;;-142.75;100.00;77702.31;5004943;28;20416;-66
2022/12/28 01:11:20;;;;;;;8.18;4.78;;;;;;;-142.75;100.00;77712.16;4983676;28;20035;-66
2022/12/28 01:13:46;;;;;;;9.50;4.23;;;;;;;-142.75;100.00;77704.28;5003932;28;20105;-67
2022/12/28 01:16:17;;;;;;;8.13;4.75;;;;;;;-142.75;100.00;77694.44;4984179;28;20029;-67
2022/12/28 01:18:44;;;;;;;13.57;5.07;;;;;;;-142.75;100.00;77684.59;5002839;28;20028;-67
2022/12/28 01:21:21;;;;;;;12.80;4.93;;;;;;;-142.75;100.00;77688.53;5002853;28;20117;-67
2022/12/28 01:23:48;;;;;;;7.50;4.27;;;;;;;-142.75;100.00;77668.84;5002258;28;20584;-68
2022/12/28 01:26:14;;;;;;;7.22;3.50;;;;;;;-142.75;100.00;77684.59;5002179;28;20052;-67
2022/12/28 01:28:40;;;;;;;11.50;5.07;;;;;;;-142.75;100.00;77676.72;5002649;28;20529;-67
2022/12/28 01:31:08;;;;;;;14.35;5.00;;;;;;;-142.75;100.00;77692.47;5002802;28;20081;-67
2022/12/28 01:33:34;;;;;;;13.70;4.40;;;;;;;-142.75;100.00;77674.75;4983935;28;20047;-67
2022/12/28 01:36:15;;;;;;;12.75;5.20;;;;;;;-142.75;100.00;77678.69;5002456;28;20210;-65
2022/12/28 01:38:42;;;;;;;11.43;5.57;;;;;;;-142.75;100.00;77672.78;4983813;28;20029;-67
2022/12/28 01:41:13;;;;;;;10.50;4.83;;;;;;;-142.75;100.00;77657.03;5002523;28;20205;-67
2022/12/28 01:43:43;;;;;;;8.93;4.30;;;;;;;-142.75;100.00;77664.91;5002517;28;20082;-66
2022/12/28 01:46:14;;;;;;;8.13;4.40;;;;;;;-142.75;100.00;77649.16;5002193;28;20161;-67
2022/12/28 01:48:48;;;;;;;9.57;4.87;;;;;;;-142.75;100.00;77662.94;5002862;28;20553;-66
2022/12/28 01:51:15;;;;;;;10.17;4.53;;;;;;;-142.75;100.00;77668.84;5001718;28;20140;-66
2022/12/28 01:53:40;;;;;;;10.40;4.77;;;;;;;-142.75;100.00;77659.00;5004364;28;20095;-67
2022/12/28 01:56:06;;;;;;;11.85;4.85;;;;;;;-142.75;100.00;77659.00;5003401;28;20365;-67
2022/12/28 01:58:34;;;;;;;10.10;4.55;;;;;;;-142.75;100.00;77647.19;5003021;28;20025;-66
2022/12/28 02:01:00;;;;;;;10.77;4.60;;;;;;;-142.75;100.00;77653.09;5003177;28;20127;-67
2022/12/28 02:03:28;;;;;;;11.00;4.32;;;;;;;-142.75;100.00;77627.50;5001837;28;20183;-67
2022/12/28 02:05:56;;;;;;;8.40;4.70;;;;;;;-142.75;100.00;77623.56;5002895;28;20028;-67
2022/12/28 02:08:40;;;;;;;10.23;5.43;;;;;;;-142.75;100.00;77623.56;5003966;28;20051;-66
2022/12/28 02:11:07;;;;;;;8.10;4.87;;;;;;;-142.75;100.00;77617.66;5002083;28;20032;-67
2022/12/28 02:13:33;;;;;;;12.23;4.40;;;;;;;-142.75;100.00;77605.84;5002224;28;20480;-66
2022/12/28 02:15:59;;;;;;;14.27;4.50;;;;;;;-142.75;100.00;77611.75;5003281;28;20662;-66
2022/12/28 02:18:26;;;;;;;9.75;4.93;;;;;;;-142.75;100.00;77586.16;5002323;28;20095;-67
2022/12/28 02:21:16;;;;;;;10.07;3.93;;;;;;;-142.75;100.00;77586.16;5002774;28;20131;-67
2022/12/28 02:24:02;;;;;;;11.73;4.90;;;;;;;-142.75;100.00;77572.38;4988331;28;20032;-65
2022/12/28 02:26:46;;;;;;;8.97;4.10;;;;;;;-142.75;100.00;77564.50;5001648;28;20086;-67
2022/12/28 02:29:17;;;;;;;9.03;4.50;;;;;;;-142.75;100.00;77550.72;5003861;28;20025;-67
2022/12/28 02:31:57;;;;;;;12.83;5.23;;;;;;;-142.75;100.00;77548.75;5001682;28;20139;-67
2022/12/28 02:34:54;;;;;;;8.73;4.73;;;;;;;-142.75;100.00;77542.84;5002041;28;20028;-67
2022/12/28 02:37:29;;;;;;;9.52;4.90;;;;;;;-142.75;100.00;77546.78;5001921;28;20140;-67
2022/12/28 02:40:00;;;;;;;12.23;5.20;;;;;;;-142.75;100.00;77525.13;5001703;28;20553;-66
2022/12/28 02:42:28;;;;;;;12.13;4.53;;;;;;;-142.75;100.00;77531.03;5003732;28;20086;-68
2022/12/28 02:50:39;;;;;;;7.47;3.83;;;;;;;-142.75;100.00;77503.47;4981633;28;20052;-67
2022/12/28 02:53:26;;;;;;;10.67;4.97;;;;;;;-142.75;100.00;77485.75;4991583;28;20028;-67
2022/12/28 02:56:07;;;;;;;9.30;4.53;;;;;;;-142.75;100.00;77505.44;5001119;28;20098;-67
2022/12/28 02:58:55;;;;;;;9.37;4.47;;;;;;;-142.75;100.00;77487.72;5007064;28;20032;-67
2022/12/28 03:02:02;;;;;;;7.63;4.40;;;;;;;-142.75;100.00;77475.91;5005533;28;20567;-67
2022/12/28 03:04:37;;;;;;;10.77;4.63;;;;;;;-142.75;100.00;77477.88;5005777;28;20029;-67
2022/12/28 03:10:48;;;;;;;9.27;4.07;;;;;;;-142.75;100.00;77473.94;5004808;28;20101;-66
2022/12/28 03:16:11;;;;;;;8.97;4.50;;;;;;;-142.75;100.00;77468.03;5000969;28;20486;-67
2022/12/28 03:32:37;;;;;;;8.88;3.95;;;;;;;-142.75;100.00;77470.00;5004716;28;20248;-68
2022/12/28 03:35:03;;;;;;;8.77;4.22;;;;;;;-142.75;100.00;77462.13;5005185;28;20427;-68
2022/12/28 03:37:36;;;;;;;7.35;4.20;;;;;;;-142.75;100.00;77462.13;5004975;28;20308;-67
2022/12/28 03:40:11;;;;;;;8.93;4.40;;;;;;;-142.75;100.00;77454.25;5004664;28;20542;-67
2022/12/28 03:45:41;;;;;;;9.00;4.03;;;;;;;-142.75;100.00;77454.25;5004624;28;20943;-67
2022/12/28 03:48:09;;;;;;;9.07;4.60;;;;;;;-142.75;100.00;77452.25;5006253;28;20537;-67
2022/12/28 03:50:37;;;;;;;9.13;4.20;;;;;;;-142.75;100.00;77442.41;5004983;28;20020;-68
2022/12/28 03:53:03;;;;;;;10.20;4.07;;;;;;;-142.75;100.00;77444.38;5005693;28;20025;-67
2022/12/28 03:55:28;;;;;;;9.73;4.10;;;;;;;-142.75;100.00;77460.13;5006289;28;20090;-67
2022/12/28 03:57:55;;;;;;;8.40;3.03;;;;;;;-142.75;100.00;77448.34;5004099;28;20371;-67
2022/12/28 04:00:20;;;;;;;6.93;3.57;;;;;;;-142.75;100.00;77454.25;5003947;28;20060;-67
2022/12/28 04:02:46;;;;;;;12.05;4.47;;;;;;;-142.75;100.00;77444.38;5006286;28;20296;-67
2022/12/28 04:05:12;;;;;;;7.65;3.70;;;;;;;-142.75;100.00;77422.72;5004567;28;20350;-67
2022/12/28 04:07:37;;;;;;;5.82;3.13;;;;;;;-142.75;100.00;77438.47;5004435;28;20323;-67
2022/12/28 04:10:03;;;;;;;8.20;3.50;;;;;;;-142.75;100.00;77432.56;5005255;28;20350;-67
2022/12/28 04:12:28;;;;;;;5.75;2.97;;;;;;;-142.75;100.00;77416.81;4995519;28;20353;-67
2022/12/28 04:14:54;;;;;;;7.30;3.03;;;;;;;-142.75;100.00;77406.97;5003924;28;20033;-67
2022/12/28 04:17:19;;;;;;;12.05;3.50;;;;;;;-142.75;100.00;77410.91;5005280;28;20550;-67
2022/12/28 04:19:45;;;;;;;5.30;3.05;;;;;;;-142.75;100.00;77393.19;4985423;28;20334;-66
2022/12/28 04:22:10;;;;;;;6.10;3.00;;;;;;;-142.75;100.00;77397.13;5006062;28;20318;-67
2022/12/28 04:24:36;;;;;;;7.05;2.75;;;;;;;-142.75;100.00;77405.00;5005815;28;20318;-67
2022/12/28 04:27:01;;;;;;;7.28;3.05;;;;;;;-142.75;100.00;77410.91;5003395;28;20330;-67
2022/12/28 04:29:27;;;;;;;5.20;2.97;;;;;;;-142.75;100.00;77389.25;5004044;28;20312;-67
2022/12/28 04:31:52;;;;;;;4.82;2.05;;;;;;;-142.75;100.00;77389.25;5003986;28;20321;-66
2022/12/28 04:34:18;;;;;;;6.00;2.83;;;;;;;-142.75;100.00;77389.25;4985391;28;20047;-67
2022/12/28 04:36:43;;;;;;;6.90;2.70;;;;;;;-142.75;100.00;77389.25;5005217;28;20420;-67
2022/12/28 04:39:09;;;;;;;10.13;3.05;;;;;;;-142.75;100.00;77383.34;5005551;28;20326;-67
2022/12/28 04:41:35;;;;;;;4.43;2.40;;;;;;;-142.75;100.00;77373.50;5003602;28;20047;-67
2022/12/28 04:44:00;;;;;;;6.88;2.47;;;;;;;-142.75;100.00;77361.69;5003947;28;20339;-67
2022/12/28 04:46:25;;;;;;;5.18;2.47;;;;;;;-142.75;100.00;77365.63;5005111;28;20021;-67
2022/12/28 04:48:52;;;;;;;7.40;2.70;;;;;;;-142.75;100.00;77349.88;5005525;28;20392;-68
2022/12/28 04:51:20;;;;;;;7.18;2.40;;;;;;;-142.75;100.00;77363.66;5005006;28;20051;-68
2022/12/28 04:53:45;;;;;;;7.13;2.55;;;;;;;-142.75;100.00;77355.78;5002784;28;20036;-67
2022/12/28 04:56:12;;;;;;;4.80;2.55;;;;;;;-142.75;100.00;77357.75;5002726;28;20307;-68
2022/12/28 04:58:38;;;;;;;8.30;2.63;;;;;;;-142.75;100.00;77353.81;5002664;28;20059;-67
2022/12/28 05:01:11;;;;;;;;;;;;;;;-142.75;100.00;77338.06;5004796;28;20593;-68
2022/12/28 05:03:39;;;;;;;6.63;2.45;;;;;;;-142.75;100.00;77349.88;4993799;28;19985;-68
2022/12/28 05:06:07;;;;;;;4.95;2.35;;;;;;;-142.75;100.00;77338.06;5002416;28;20016;-67
2022/12/28 05:08:34;;;;;;;5.93;2.22;;;;;;;-142.75;100.00;77355.78;5004734;28;20056;-68
2022/12/28 05:11:01;;;;;;;4.15;2.40;;;;;;;-142.75;100.00;77342.00;5002699;28;20025;-67
2022/12/28 05:13:27;;;;;;;7.80;2.90;;;;;;;-142.75;100.00;77349.88;5002871;28;20591;-67
2022/12/28 05:15:53;;;;;;;12.40;2.83;;;;;;;-142.75;100.00;77342.00;5003631;28;20028;-67
2022/12/28 05:18:18;;;;;;;5.95;2.53;;;;;;;-142.75;100.00;77351.84;5002333;28;20378;-67
2022/12/28 05:20:44;;;;;;;5.82;2.35;;;;;;;-142.75;100.00;77345.94;5002355;28;20476;-67
2022/12/28 05:23:09;;;;;;;4.93;2.88;;;;;;;-142.75;100.00;77353.81;5002807;28;20342;-67
2022/12/28 05:25:35;;;;;;;3.45;1.83;;;;;;;-142.75;100.00;77338.06;5004720;28;20342;-68
2022/12/28 05:28:00;;;;;;;3.42;2.20;;;;;;;-142.75;100.00;77349.88;5002227;28;20373;-67
2022/12/28 05:30:26;;;;;;;6.93;2.47;;;;;;;-142.75;100.00;77347.91;5002086;28;20380;-67
2022/12/28 05:32:51;;;;;;;5.88;2.25;;;;;;;-142.75;100.00;77330.19;5001862;28;20339;-68
2022/12/28 05:35:17;;;;;;;4.00;2.17;;;;;;;-142.75;100.00;77342.00;5003012;28;20298;-67
2022/12/28 05:37:42;;;;;;;6.25;2.70;;;;;;;-142.75;100.00;77316.41;5004249;28;20303;-67
2022/12/28 05:40:08;;;;;;;6.78;2.33;;;;;;;-142.75;100.00;77326.25;5004542;28;20366;-67
2022/12/28 05:42:35;;;;;;;6.28;2.47;;;;;;;-142.75;100.00;77314.44;4983907;28;20358;-67
2022/12/28 05:45:00;;;;;;;4.53;2.28;;;;;;;-142.75;100.00;77294.75;5002306;28;20811;-67
2022/12/28 05:47:26;;;;;;;6.72;2.75;;;;;;;-142.75;100.00;77308.53;5003266;28;20063;-67
2022/12/28 05:49:51;;;;;;;6.18;2.28;;;;;;;-142.75;100.00;77298.69;5002210;28;20358;-67
2022/12/28 05:52:17;;;;;;;5.07;2.33;;;;;;;-142.75;100.00;77292.78;5002123;28;20330;-67
2022/12/28 05:54:43;;;;;;;6.72;2.22;;;;;;;-142.75;100.00;77290.81;5002162;28;20496;-67
2022/12/28 05:57:08;;;;;;;7.35;2.08;;;;;;;-142.75;100.00;77288.84;5002249;28;20102;-67
2022/12/28 05:59:34;;;;;;;6.68;2.42;;;;;;;-142.75;100.00;77284.91;5003086;28;20570;-68
2022/12/28 06:01:59;;;;;;;4.95;1.60;;;;;;;-142.75;100.00;77277.03;5002912;28;20404;-67
2022/12/28 06:04:25;;;;;;;5.32;2.17;;;;;;;-142.75;100.00;77275.06;5001730;28;20379;-67
2022/12/28 06:06:53;;;;;;;7.38;2.33;;;;;;;-142.75;100.00;77263.25;5001971;28;20346;-67
2022/12/28 06:09:18;;;;;;;5.45;2.03;;;;;;;-142.75;100.00;77267.19;5001767;28;20056;-67
2022/12/28 06:11:45;;;;;;;5.70;1.80;;;;;;;-142.75;100.00;77263.25;5001736;28;20314;-67
2022/12/28 06:14:10;;;;;;;;;;;;;;;-142.75;100.00;77245.53;5002752;28;20131;-66
2022/12/28 06:16:38;;;;;;;5.57;1.92;;;;;;;-142.75;100.00;77273.09;4983216;28;20220;-67
2022/12/28 06:19:10;;;;;;;8.80;2.00;;;;;;;-142.75;100.00;77261.28;4971420;28;20098;-67
2022/12/28 06:21:38;;;;;;;3.72;2.05;;;;;;;-142.75;100.00;77259.31;4983472;28;20245;-66
2022/12/28 06:24:04;;;;;;;8.32;1.60;;;;;;;-142.75;100.00;77257.34;5004011;28;20016;-67
2022/12/28 06:26:32;;;;;;;4.38;1.88;;;;;;;-142.75;100.00;77247.50;4983461;28;20024;-67
2022/12/28 06:28:58;;;;;;;5.13;1.80;;;;;;;-142.75;100.00;77245.53;5000165;28;20052;-68
2022/12/28 06:31:26;;;;;;;7.72;2.10;;;;;;;-142.75;100.00;77239.63;4983590;28;20083;-67
2022/12/28 06:33:56;;;;;;;5.88;1.77;;;;;;;-142.75;100.00;77241.59;5034967;22;20041;-64
2022/12/28 06:36:30;;;;;;;6.85;1.75;;;;;;;-142.75;100.00;77247.50;5005140;28;20131;-64
2022/12/28 06:38:57;;;;;;;4.82;2.03;;;;;;;-142.75;100.00;77247.50;4994867;28;20039;-64
2022/12/28 06:41:23;;;;;;;2.40;1.60;;;;;;;-142.75;100.00;77247.50;4985961;28;20574;-63
2022/12/28 06:43:50;;;;;;;4.68;1.67;;;;;;;-142.75;100.00;77241.59;5005481;28;20082;-64
2022/12/28 06:46:18;;;;;;;4.78;1.80;;;;;;;-142.75;100.00;77239.63;4986821;28;20190;-64
2022/12/28 06:48:43;;;;;;;7.38;1.50;;;;;;;-142.75;100.00;77231.75;5005272;28;20025;-64
2022/12/28 06:51:30;;;;;;;3.55;1.40;;;;;;;-142.75;100.00;77229.78;5005132;28;20313;-62
2022/12/28 06:53:56;;;;;;;2.30;1.60;;;;;;;-142.75;100.00;77225.84;5005162;28;20028;-64
2022/12/28 06:56:27;;;;;;;4.75;1.60;;;;;;;-142.75;100.00;77231.75;5005304;28;20047;-64
2022/12/28 06:58:53;;;;;;;3.60;1.60;;;;;;;-142.75;100.00;77233.72;5004820;28;20055;-64
2022/12/28 07:01:23;;;;;;;;;;;;;;;-142.75;100.00;77221.91;5005548;28;20024;-64
2022/12/28 07:03:51;;;;;;;2.70;1.77;;;;;;;-142.75;100.00;77223.88;5004993;28;19912;-64
2022/12/28 07:06:18;;;;;;;3.78;1.85;;;;;;;-142.75;100.00;77221.91;5004843;28;20113;-64
2022/12/28 07:08:44;;;;;;;4.38;1.70;;;;;;;-142.75;100.00;77217.97;5006780;28;20020;-64
2022/12/28 07:11:13;;;;;;;4.40;1.35;;;;;;;-142.75;100.00;77219.94;4986600;28;20396;-63
2022/12/28 07:13:38;;;;;;;5.63;1.75;;;;;;;-142.75;100.00;77221.91;5004743;28;20021;-63
2022/12/28 07:16:07;;;;;;;5.85;1.70;;;;;;;-142.75;100.00;77231.75;5005283;28;20430;-64
2022/12/28 07:18:33;;;;;;;7.38;1.98;;;;;;;-142.75;100.00;77216.00;5004399;28;20109;-63
2022/12/28 07:21:09;;;;;;;4.00;1.50;;;;;;;-142.75;100.00;77204.19;5004945;28;20028;-64
2022/12/28 07:23:35;;;;;;;6.55;1.92;;;;;;;-142.75;100.00;77212.06;5004501;28;20056;-64
2022/12/28 07:26:10;;;;;;;4.63;1.50;;;;;;;-142.75;100.00;77212.06;5004479;28;20244;-64
2022/12/28 07:28:39;;;;;;;4.93;2.15;;;;;;;-142.75;100.00;77214.03;5004751;28;20530;-63
2022/12/28 07:31:10;;;;;;;4.78;1.90;;;;;;;-142.75;100.00;77204.19;5004435;28;20024;-64
2022/12/28 07:33:36;;;;;;;3.55;1.48;;;;;;;-142.75;100.00;77212.06;5004516;28;20025;-64
2022/12/28 07:36:03;;;;;;;2.90;1.80;;;;;;;-142.75;100.00;77196.31;5004753;28;20102;-63
2022/12/28 07:38:29;;;;;;;5.70;1.77;;;;;;;-142.75;100.00;77216.00;4979340;28;20016;-63
2022/12/28 07:41:06;;;;;;;4.32;1.77;;;;;;;-142.75;100.00;77204.19;5004465;28;20330;-63
2022/12/28 07:43:34;;;;;;;6.13;1.90;;;;;;;-142.75;100.00;77204.19;5003834;28;20052;-63
2022/12/28 07:46:00;;;;;;;4.88;1.75;;;;;;;-142.75;100.00;77208.13;5004459;28;20040;-62
2022/12/28 07:48:29;;;;;;;6.75;1.80;;;;;;;-142.75;100.00;77204.19;5004117;28;20541;-62
2022/12/28 07:50:54;;;;;;;3.08;2.00;;;;;;;-142.75;100.00;77204.19;5005438;28;20052;-63
2022/12/28 07:53:20;;;;;;;11.15;1.90;;;;;;;-142.75;100.00;77214.03;5005598;28;20179;-63
2022/12/28 07:55:54;;;;;;;6.25;1.83;;;;;;;-142.75;100.00;77208.13;5004039;28;20349;-64
2022/12/28 07:58:20;;;;;;;6.55;2.00;;;;;;;-142.75;100.00;77208.13;4999571;28;20685;-63
2022/12/28 08:00:45;;;;;;;7.05;2.00;;;;;;;-142.75;100.00;77214.03;4986113;28;20077;-63
2022/12/28 08:03:11;;;;;;;3.80;2.00;;;;;;;-142.75;100.00;77216.00;5003784;28;20504;-64
2022/12/28 08:05:36;;;;;;;6.70;2.78;;;;;;;-142.75;100.00;77200.25;5003964;28;20452;-63
2022/12/28 08:08:02;;;;;;;5.72;1.92;;;;;;;-142.75;100.00;77208.13;4986618;28;20314;-63
2022/12/28 08:10:27;;;;;;;4.07;1.60;;;;;;;-142.75;100.00;77204.19;5003696;28;20311;-64
2022/12/28 08:12:53;;;;;;;3.00;1.60;;;;;;;-142.75;100.00;77194.34;4985866;28;20300;-64
2022/12/28 08:15:18;;;;;;;4.80;1.42;;;;;;;-142.75;100.00;77194.34;5003666;28;20356;-63
2022/12/28 08:17:44;;;;;;;3.70;1.58;;;;;;;-142.75;100.00;77200.25;5003782;28;20394;-62
2022/12/28 08:20:10;;;;;;;4.85;2.00;;;;;;;-142.75;100.00;77198.28;4986455;28;20483;-62
2022/12/28 08:22:35;;;;;;;7.65;2.60;;;;;;;-142.75;100.00;77208.13;5003391;28;20409;-64
2022/12/28 08:25:01;;;;;;;5.82;2.15;;;;;;;-142.75;100.00;77204.19;5003598;28;20056;-64
2022/12/28 08:27:26;;;;;;;6.10;1.88;;;;;;;-142.75;100.00;77200.25;5003625;28;20330;-62
2022/12/28 08:29:52;;;;;;;5.55;2.22;;;;;;;-142.75;100.00;77176.63;5003405;28;20346;-63
2022/12/28 08:32:17;;;;;;;4.28;2.10;;;;;;;-142.75;100.00;77208.13;5003150;28;20323;-61
2022/12/28 08:34:43;;;;;;;6.18;2.28;;;;;;;-142.75;100.00;77196.31;5003311;28;20335;-64
2022/12/28 08:37:08;;;;;;;5.28;2.03;;;;;;;-142.75;100.00;77196.31;5038894;28;20133;-63
2022/12/28 08:39:33;;;;;;;4.63;2.08;;;;;;;-142.75;100.00;77200.25;5044605;28;20056;-63
2022/12/28 08:41:59;;;;;;;5.97;2.13;;;;;;;-142.75;100.00;77196.31;5045328;28;20017;-64
2022/12/28 08:44:24;;;;;;;7.35;2.30;;;;;;;-142.75;100.00;77198.28;5059017;28;20375;-64
2022/12/28 08:46:49;;;;;;;7.03;2.30;;;;;;;-142.75;100.00;77202.22;5057687;28;20027;-64
2022/12/28 08:49:14;;;;;;;6.32;2.10;;;;;;;-142.75;100.00;77204.19;5057924;28;20331;-64
2022/12/28 08:51:41;;;;;;;6.32;1.80;;;;;;;-142.75;100.00;77196.31;5051437;28;20056;-64
2022/12/28 08:54:06;;;;;;;;;;;;;;;-142.75;100.00;77200.25;4989145;28;20385;-63
2022/12/28 08:56:35;;;;;;;4.53;1.98;;;;;;;-142.75;100.00;77192.38;4981208;28;19908;-63
2022/12/28 08:59:01;;;;;;;3.60;2.05;;;;;;;-142.75;100.00;77172.69;4994889;28;20637;-63
2022/12/28 09:01:38;;;;;;;6.18;1.73;;;;;;;-142.75;100.00;77168.75;4984776;28;20046;-63
2022/12/28 09:04:03;;;;;;;;;;;;;;;-142.75;100.00;77176.63;4996340;28;20051;-63
2022/12/28 09:06:34;;;;;;;8.45;2.33;;;;;;;-142.75;100.00;77172.69;5003065;28;20166;-63
2022/12/28 09:09:01;;;;;;;7.30;2.35;;;;;;;-142.75;100.00;77174.66;4983826;28;20049;-64
2022/12/28 09:11:27;;;;;;;5.28;2.13;;;;;;;-142.75;100.00;77208.13;5002818;28;20055;-64
2022/12/28 09:13:52;;;;;;;4.13;2.15;;;;;;;-142.75;100.00;77174.66;5002415;28;20109;-64
2022/12/28 09:16:22;;;;;;;9.95;2.20;;;;;;;-142.75;100.00;77184.50;4985681;28;20421;-64
2022/12/28 09:18:51;;;;;;;6.18;2.15;;;;;;;-142.75;100.00;77172.69;5004491;28;20035;-64
2022/12/28 09:21:19;;;;;;;6.97;1.92;;;;;;;-142.75;100.00;77162.84;5002394;28;20047;-64
2022/12/28 09:23:45;;;;;;;5.93;2.00;;;;;;;-142.75;100.00;77174.66;5000096;28;20039;-64
2022/12/28 09:26:15;;;;;;;7.60;2.50;;;;;;;-142.75;100.00;77174.66;5002518;28;20035;-60
2022/12/28 09:28:50;;;;;;;7.38;2.42;;;;;;;-142.75;100.00;77162.84;5002114;28;20059;-63
2022/12/28 09:31:19;;;;;;;9.57;2.22;;;;;;;-142.75;100.00;77164.81;4984460;28;20537;-64
2022/12/28 09:34:00;;;;;;;5.45;1.98;;;;;;;-142.75;100.00;77158.91;4984029;28;20024;-63
2022/12/28 09:36:38;;;;;;;5.85;2.25;;;;;;;-142.75;100.00;77158.91;4984029;28;20571;-63
2022/12/28 09:39:12;;;;;;;6.22;2.08;;;;;;;-142.75;100.00;77162.84;4984349;28;20545;-65
2022/12/28 09:41:47;;;;;;;11.98;2.63;;;;;;;-142.75;100.00;77170.72;5002215;28;20025;-64
2022/12/28 09:44:15;;;;;;;8.52;2.38;;;;;;;-142.75;100.00;77184.50;5002282;28;20016;-64
2022/12/28 09:46:53;;;;;;;3.83;2.70;;;;;;;-142.75;100.00;77156.94;5002235;28;20055;-65
2022/12/28 09:49:22;;;;;;;10.30;2.38;;;;;;;-142.75;100.00;77168.75;5002216;28;20643;-64
2022/12/28 09:52:14;;;;;;;8.27;2.00;;;;;;;-142.75;100.00;77153.00;5002087;28;20021;-64
2022/12/28 09:54:40;;;;;;;7.72;2.50;;;;;;;-142.75;100.00;77168.75;4956660;28;20118;-64
2022/12/28 09:57:17;;;;;;;;;;;;;;;-142.75;100.00;77151.03;5002445;28;20017;-64
2022/12/28 09:59:44;;;;;;;10.68;1.88;;;;;;;-142.75;100.00;77162.84;4986502;28;20112;-63
2022/12/28 10:02:21;;;;;;;10.95;2.22;;;;;;;-142.75;100.00;77160.88;4983501;28;20091;-63
2022/12/28 10:04:48;;;;;;;2.92;1.65;;;;;;;-142.75;100.00;77143.16;5002058;28;20020;-64
2022/12/28 10:07:14;;;;;;;9.85;1.98;;;;;;;-142.75;100.00;77149.06;5001534;28;20587;-62
2022/12/28 10:09:39;;;;;;;6.15;1.35;;;;;;;-142.75;100.00;77141.19;5001893;28;20037;-61
2022/12/28 10:12:18;;;;;;;6.97;2.22;;;;;;;-142.75;100.00;77143.16;4983674;28;20032;-66
2022/12/28 10:14:48;;;;;;;8.93;2.38;;;;;;;-142.75;100.00;77160.88;4983573;28;20536;-62
2022/12/28 10:17:15;;;;;;;6.25;2.00;;;;;;;-142.75;100.00;77147.09;5001864;28;20564;-65
2022/12/28 10:19:45;;;;;;;4.57;1.67;;;;;;;-142.75;100.00;77137.25;4997831;28;20029;-65
2022/12/28 10:22:15;;;;;;;3.60;1.58;;;;;;;-142.75;100.00;77139.22;4983971;28;20028;-63
2022/12/28 10:24:41;;;;;;;5.47;2.30;;;;;;;-142.75;100.00;77143.16;5002019;28;20587;-63
2022/12/28 10:27:15;;;;;;;5.20;2.35;;;;;;;-142.75;100.00;77156.94;5001889;28;20044;-64
2022/12/28 10:29:42;;;;;;;5.65;2.05;;;;;;;-142.75;100.00;77166.78;4983713;28;20186;-63
2022/12/28 10:32:09;;;;;;;5.90;2.42;;;;;;;-142.75;100.00;77180.56;4984203;28;20054;-63
2022/12/28 10:34:35;;;;;;;9.20;2.83;;;;;;;-142.75;100.00;77198.28;5001502;28;20020;-63
2022/12/28 10:37:16;;;;;;;6.93;3.00;;;;;;;-142.75;100.00;77206.16;5001587;28;20117;-64
2022/12/28 10:39:58;;;;;;;7.35;3.15;;;;;;;-142.75;100.00;77200.25;5000971;28;20028;-64
2022/12/28 10:42:30;;;;;;;9.90;2.65;;;;;;;-142.75;100.00;77216.00;5001667;28;20025;-63
2022/12/28 10:45:04;;;;;;;8.63;2.85;;;;;;;-142.75;100.00;77210.09;4985692;28;20059;-63
2022/12/28 10:47:35;;;;;;;10.57;2.80;;;;;;;-142.75;100.00;77216.00;4983494;28;20646;-63
2022/12/28 10:50:02;;;;;;;5.13;2.40;;;;;;;-142.75;100.00;77208.13;5001481;28;20032;-63
2022/12/28 10:52:28;;;;;;;5.40;2.25;;;;;;;-142.75;100.00;77216.00;5001244;28;20537;-62
2022/12/28 10:54:53;;;;;;;7.03;2.15;;;;;;;-142.75;100.00;77212.06;5001465;28;20028;-63
2022/12/28 10:57:25;;;;;;;8.43;2.95;;;;;;;-142.75;100.00;77194.34;4982971;28;20342;-64
2022/12/28 10:59:50;;;;;;;3.15;2.05;;;;;;;-142.75;100.00;77192.38;5001106;28;20036;-63
2022/12/28 11:02:27;;;;;;;4.53;1.85;;;;;;;-142.75;100.00;77184.50;5002934;28;20059;-64
2022/12/28 11:05:03;;;;;;;9.05;2.35;;;;;;;-142.75;100.00;77188.44;5001210;28;20017;-64
2022/12/28 11:07:35;;;;;;;5.40;2.17;;;;;;;-142.75;100.00;77190.41;5001346;28;20047;-63
2022/12/28 11:10:27;;;;;;;4.20;2.03;;;;;;;-142.75;100.00;77194.34;4983223;28;20055;-63
2022/12/28 11:12:55;;;;;;;7.43;2.20;;;;;;;-142.75;100.00;77196.31;5001103;28;20051;-64
2022/12/28 11:15:27;;;;;;;7.40;2.17;;;;;;;-142.75;100.00;77192.38;5001469;28;20024;-63
2022/12/28 11:17:59;;;;;;;6.72;2.55;;;;;;;-142.75;100.00;77182.53;5002035;28;20055;-63
2022/12/28 11:20:35;;;;;;;7.88;2.55;;;;;;;-142.75;100.00;77198.28;5004644;28;20541;-63
2022/12/28 11:23:05;;;;;;;4.55;2.45;;;;;;;-142.75;100.00;77188.44;5004890;28;20029;-64
2022/12/28 11:25:33;;;;;;;5.72;2.00;;;;;;;-142.75;100.00;77192.38;5004545;28;20029;-64
2022/12/28 11:28:00;;;;;;;5.47;1.88;;;;;;;-142.75;100.00;77178.59;5004495;28;20131;-63
2022/12/28 11:30:26;;;;;;;4.05;1.85;;;;;;;-142.75;100.00;77200.25;5004712;28;20029;-62
2022/12/28 11:32:51;;;;;;;5.95;2.30;;;;;;;-142.75;100.00;77186.47;5004536;28;20108;-64
2022/12/28 11:35:33;;;;;;;4.18;2.00;;;;;;;-142.75;100.00;77192.38;4986762;28;20378;-64
2022/12/28 11:38:01;;;;;;;6.80;1.77;;;;;;;-142.75;100.00;77192.38;5005298;28;20098;-63
2022/12/28 11:40:42;;;;;;;4.15;1.73;;;;;;;-142.75;100.00;77180.56;4986326;28;20017;-64
2022/12/28 11:43:47;;;;;;;7.90;1.85;;;;;;;-142.75;100.00;77184.50;5004412;28;20047;-64
2022/12/28 11:46:22;;;;;;;8.27;2.08;;;;;;;-142.75;100.00;77180.56;4960725;28;20134;-64